createdAt,value
2023-01-17T00:02:34.000Z,26.67
2023-01-17T00:07:35.000Z,25.92
2023-01-17T00:12:34.000Z,25.98
2023-01-17T00:17:35.000Z,25.98
2023-01-17T00:27:35.000Z,26.01
2023-01-17T00:32:35.000Z,25.59
2023-01-17T00:37:35.000Z,28.4
2023-01-17T00:42:35.000Z,26.95
2023-01-17T00:47:34.000Z,27.08
2023-01-17T00:52:35.000Z,28.98
2023-01-17T00:57:34.000Z,27.29
2023-01-17T01:02:38.000Z,27.52
2023-01-17T01:07:34.000Z,26.73
2023-01-17T01:12:35.000Z,26.77
2023-01-17T01:17:34.000Z,26.3
2023-01-17T01:22:35.000Z,25.88
2023-01-17T01:27:35.000Z,25.88
2023-01-17T01:32:35.000Z,26.67
2023-01-17T01:37:34.000Z,27.34
2023-01-17T01:42:35.000Z,27.57
2023-01-17T01:47:34.000Z,27.16
2023-01-17T01:52:35.000Z,27.25
2023-01-17T01:57:34.000Z,26.6
2023-01-17T02:02:35.000Z,27.93
2023-01-17T02:07:35.000Z,28.28
2023-01-17T02:12:34.000Z,29.89
2023-01-17T02:17:35.000Z,28.18
2023-01-17T02:22:35.000Z,29.21
2023-01-17T02:27:34.000Z,28.75
2023-01-17T02:32:35.000Z,28.77
2023-01-17T02:37:35.000Z,27.86
2023-01-17T02:42:34.000Z,27.86
2023-01-17T02:47:35.000Z,26.85
2023-01-17T02:52:35.000Z,27.77
2023-01-17T02:57:35.000Z,26.43
2023-01-17T03:02:35.000Z,28.21
2023-01-17T03:07:35.000Z,26
2023-01-17T03:12:34.000Z,26.93
2023-01-17T03:17:35.000Z,26.32
2023-01-17T03:22:35.000Z,25.26
2023-01-17T03:37:35.000Z,24.78
2023-01-17T03:42:35.000Z,25.62
2023-01-17T03:47:34.000Z,26.42
2023-01-17T03:52:35.000Z,26.99
2023-01-17T03:57:34.000Z,25.33
2023-01-17T04:02:35.000Z,26.95
2023-01-17T04:07:34.000Z,26.95
2023-01-17T04:12:35.000Z,26.59
2023-01-17T04:17:34.000Z,25.89
2023-01-17T04:22:34.000Z,26.1
2023-01-17T04:27:35.000Z,26.81
2023-01-17T04:32:35.000Z,25.76
2023-01-17T04:37:35.000Z,26.35
2023-01-17T04:42:35.000Z,25.95
2023-01-17T04:47:35.000Z,25.93
2023-01-17T04:52:34.000Z,25.14
2023-01-17T04:57:35.000Z,26.49
2023-01-17T05:02:35.000Z,25.97
2023-01-17T05:07:35.000Z,24.55
2023-01-17T05:12:34.000Z,25.27
2023-01-17T05:17:35.000Z,24.82
2023-01-17T05:22:34.000Z,24.82
2023-01-17T05:27:35.000Z,25.41
2023-01-17T05:32:34.000Z,25.63
2023-01-17T05:37:36.000Z,24.2
2023-01-17T05:42:34.000Z,24.34
2023-01-17T05:47:35.000Z,22.97
2023-01-17T05:52:34.000Z,22.32
2023-01-17T05:57:35.000Z,21.82
2023-01-17T06:02:35.000Z,21.33
2023-01-17T06:07:35.000Z,21.33
2023-01-17T06:12:34.000Z,20.73
2023-01-17T06:17:35.000Z,20.32
2023-01-17T06:22:35.000Z,20.76
2023-01-17T06:27:35.000Z,20.68
2023-01-17T06:32:35.000Z,20.26
2023-01-17T06:37:35.000Z,20.22
2023-01-17T06:42:34.000Z,19.83
2023-01-17T06:47:34.000Z,20.22
2023-01-17T06:52:35.000Z,18.66
2023-01-17T06:57:34.000Z,20.19
2023-01-17T07:02:35.000Z,19.21
2023-01-17T07:07:35.000Z,19.62
2023-01-17T07:12:34.000Z,19.62
2023-01-17T07:17:35.000Z,18.39
2023-01-17T07:22:34.000Z,19.39
2023-01-17T07:27:35.000Z,19.75
2023-01-17T07:32:34.000Z,19.25
2023-01-17T07:37:35.000Z,20.66
2023-01-17T07:42:35.000Z,21.38
2023-01-17T07:47:34.000Z,21.65
2023-01-17T07:52:35.000Z,22.21
2023-01-17T07:57:34.000Z,22.86
2023-01-17T08:02:35.000Z,21.76
2023-01-17T08:07:35.000Z,24.04
2023-01-17T08:12:34.000Z,24.13
2023-01-17T08:17:35.000Z,25.67
2023-01-17T08:22:34.000Z,25.67
2023-01-17T08:27:35.000Z,24.85
2023-01-17T08:32:35.000Z,26.12
2023-01-17T08:37:34.000Z,25.36
2023-01-17T08:42:35.000Z,26.67
2023-01-17T08:47:35.000Z,27.79
2023-01-17T08:52:35.000Z,28.24
2023-01-17T08:57:35.000Z,29.02
2023-01-17T09:02:35.000Z,28.76
2023-01-17T09:07:34.000Z,29.07
2023-01-17T09:12:35.000Z,29.5
2023-01-17T09:17:35.000Z,28.75
2023-01-17T09:22:35.000Z,27.22
2023-01-17T09:27:35.000Z,27.36
2023-01-17T09:32:34.000Z,26.85
2023-01-17T09:37:35.000Z,26.85
2023-01-17T09:42:34.000Z,26.65
2023-01-17T09:47:35.000Z,26.93
2023-01-17T09:52:34.000Z,28.22
2023-01-17T09:57:34.000Z,28.67
2023-01-17T10:02:36.000Z,27.38
2023-01-17T10:07:34.000Z,28.91
2023-01-17T10:12:34.000Z,27.67
2023-01-17T10:17:35.000Z,28.94
2023-01-17T10:22:35.000Z,27.21
2023-01-17T10:27:34.000Z,28.64
2023-01-17T10:32:34.000Z,29.14
2023-01-17T10:37:35.000Z,30.23
2023-01-17T10:42:34.000Z,30.87
2023-01-17T10:47:35.000Z,30.61
2023-01-17T10:52:35.000Z,30.61
2023-01-17T10:57:35.000Z,31.53
2023-01-17T11:02:35.000Z,30.5
2023-01-17T11:07:35.000Z,31.02
2023-01-17T11:12:34.000Z,31.89
2023-01-17T11:17:35.000Z,31.44
2023-01-17T11:22:34.000Z,30.19
2023-01-17T11:32:35.000Z,31.55
2023-01-17T11:37:35.000Z,31.31
2023-01-17T11:42:35.000Z,31.34
2023-01-17T11:47:35.000Z,30.69
2023-01-17T11:52:34.000Z,31.36
2023-01-17T11:57:35.000Z,31.42
2023-01-17T12:02:34.000Z,30.94
2023-01-17T12:07:34.000Z,30.82
2023-01-17T12:12:35.000Z,31.16
2023-01-17T12:17:35.000Z,31.16
2023-01-17T12:22:34.000Z,31.59
2023-01-17T12:27:35.000Z,31.16
2023-01-17T12:32:34.000Z,31.56
2023-01-17T12:37:34.000Z,31.29
2023-01-17T12:42:34.000Z,30.2
2023-01-17T12:47:35.000Z,31.31
2023-01-17T12:52:35.000Z,30.93
2023-01-17T12:57:35.000Z,30.3
2023-01-17T13:02:35.000Z,31.36
2023-01-17T13:07:34.000Z,30.04
2023-01-17T13:12:35.000Z,30.26
2023-01-17T13:17:34.000Z,28.93
2023-01-17T13:22:35.000Z,29.5
2023-01-17T13:32:35.000Z,28.02
2023-01-17T13:37:35.000Z,28.12
2023-01-17T13:42:34.000Z,27.04
2023-01-17T13:47:35.000Z,26.58
2023-01-17T13:52:34.000Z,25.46
2023-01-17T13:57:34.000Z,26.86
2023-01-17T14:02:35.000Z,27.29
2023-01-17T14:07:35.000Z,26.28
2023-01-17T14:12:34.000Z,28
2023-01-17T14:17:35.000Z,27.75
2023-01-17T14:22:34.000Z,27.53
2023-01-17T14:27:34.000Z,28.69
2023-01-17T14:32:34.000Z,27.4
2023-01-17T14:37:35.000Z,27.4
2023-01-17T14:42:35.000Z,26.85
2023-01-17T14:47:35.000Z,27.42
2023-01-17T14:52:34.000Z,26.82
2023-01-17T14:57:35.000Z,27.22
2023-01-17T15:02:35.000Z,26.48
2023-01-17T15:07:35.000Z,28.14
2023-01-17T15:12:35.000Z,27
2023-01-17T15:17:35.000Z,27.83
2023-01-17T15:27:35.000Z,28.6
2023-01-17T15:32:35.000Z,29.37
2023-01-17T15:37:34.000Z,28.81
2023-01-17T15:42:35.000Z,29.45
2023-01-17T15:47:34.000Z,30.42
2023-01-17T15:52:35.000Z,30.42
2023-01-17T15:57:35.000Z,29.79
2023-01-17T16:02:35.000Z,30.79
2023-01-17T16:07:34.000Z,30.29
2023-01-17T16:12:35.000Z,30.3
2023-01-17T16:17:34.000Z,31.98
2023-01-17T16:22:34.000Z,31.21
2023-01-17T16:27:35.000Z,30.45
2023-01-17T16:32:34.000Z,29.93
2023-01-17T16:37:35.000Z,32.55
2023-01-17T16:47:35.000Z,32.09
2023-01-17T16:52:34.000Z,32.93
2023-01-17T16:57:35.000Z,34.15
2023-01-17T17:02:35.000Z,32.93
2023-01-17T17:07:35.000Z,30.93
2023-01-17T17:12:35.000Z,31.82
2023-01-17T17:17:34.000Z,31.36
2023-01-17T17:22:34.000Z,30.25
2023-01-17T17:27:35.000Z,30.19
2023-01-17T17:32:35.000Z,30.19
2023-01-17T17:37:35.000Z,30.45
2023-01-17T17:42:35.000Z,28.48
2023-01-17T17:47:35.000Z,27.89
2023-01-17T17:52:34.000Z,28.02
2023-01-17T17:57:35.000Z,27.62
2023-01-17T18:02:34.000Z,27.82
2023-01-17T18:07:35.000Z,27.38
2023-01-17T18:12:34.000Z,27
2023-01-17T18:17:35.000Z,27.42
2023-01-17T18:22:34.000Z,25.97
2023-01-17T18:32:35.000Z,26.14
2023-01-17T18:37:34.000Z,26.14
2023-01-17T18:42:35.000Z,23.5
2023-01-17T18:47:34.000Z,24.35
2023-01-17T18:52:35.000Z,25.06
2023-01-17T18:57:35.000Z,25
2023-01-17T19:02:35.000Z,22.05
2023-01-17T19:07:35.000Z,23.71
2023-01-17T19:12:35.000Z,22.74
2023-01-17T19:17:35.000Z,24.31
2023-01-17T19:22:34.000Z,24.07
2023-01-17T19:27:35.000Z,23.33
2023-01-17T19:32:35.000Z,24.42
2023-01-17T19:42:35.000Z,26.19
2023-01-17T19:47:34.000Z,25.1
2023-01-17T19:52:35.000Z,25.31
2023-01-17T19:57:35.000Z,29.26
2023-01-17T20:02:35.000Z,28.05
2023-01-17T20:07:34.000Z,28.05
2023-01-17T20:12:35.000Z,29.03
2023-01-17T20:17:34.000Z,29.25
2023-01-17T20:22:35.000Z,29.73
2023-01-17T20:27:34.000Z,30.6
2023-01-17T20:32:34.000Z,30.33
2023-01-17T20:37:35.000Z,30.31
2023-01-17T20:42:35.000Z,29.77
2023-01-17T20:47:35.000Z,29.2
2023-01-17T20:52:34.000Z,29.93
2023-01-17T20:57:35.000Z,30.06
2023-01-17T21:02:35.000Z,30.28
2023-01-17T21:07:34.000Z,28.85
2023-01-17T21:12:34.000Z,29.57
2023-01-17T21:17:35.000Z,28.22
2023-01-17T21:22:35.000Z,28.22
2023-01-17T21:27:35.000Z,29.63
2023-01-17T21:32:35.000Z,28.41
2023-01-17T21:37:34.000Z,26.39
2023-01-17T21:42:35.000Z,27.69
2023-01-17T21:47:34.000Z,27.61
2023-01-17T21:52:35.000Z,26.68
2023-01-17T21:57:35.000Z,27.72
2023-01-17T22:02:35.000Z,28.59
2023-01-17T22:07:34.000Z,28.64
2023-01-17T22:12:34.000Z,29.03
2023-01-17T22:17:34.000Z,29.66
2023-01-17T22:22:35.000Z,30.92
2023-01-17T22:27:34.000Z,30.97
2023-01-17T22:32:34.000Z,31.03
2023-01-17T22:37:35.000Z,31.03
2023-01-17T22:42:35.000Z,29.36
2023-01-17T22:47:34.000Z,31.07
2023-01-17T22:52:35.000Z,30.06
2023-01-17T22:57:35.000Z,31.61
2023-01-17T23:02:35.000Z,29.81
2023-01-17T23:07:35.000Z,30.51
2023-01-17T23:12:35.000Z,29.6
2023-01-17T23:17:34.000Z,31.02
2023-01-17T23:22:35.000Z,30.87
2023-01-17T23:27:34.000Z,31.13
2023-01-17T23:32:35.000Z,31.2
2023-01-17T23:37:34.000Z,30.87
2023-01-17T23:42:35.000Z,29.59
2023-01-17T23:47:35.000Z,29.59
2023-01-17T23:52:34.000Z,30.19
2023-01-17T23:57:35.000Z,30.58
